sensor_id;sensor_type;location;lat;lon;timestamp;P1;durP1;ratioP1;P2;durP2;ratioP2
14599;SDS011;7386;45.586;12.854;2023-03-25T00:01:16;16.17;;;10.53;;
14599;SDS011;7386;45.586;12.854;2023-03-25T00:03:44;15.37;;;11.57;;
14599;SDS011;7386;45.586;12.854;2023-03-25T00:06:16;18.17;;;11.90;;
14599;SDS011;7386;45.586;12.854;2023-03-25T00:08:45;14.87;;;10.60;;
14599;SDS011;7386;45.586;12.854;2023-03-25T00:11:14;14.70;;;11.50;;
14599;SDS011;7386;45.586;12.854;2023-03-25T00:13:43;15.10;;;10.90;;
14599;SDS011;7386;45.586;12.854;2023-03-25T00:16:13;16.63;;;11.20;;
14599;SDS011;7386;45.586;12.854;2023-03-25T00:18:42;17.80;;;11.93;;
14599;SDS011;7386;45.586;12.854;2023-03-25T00:21:13;16.43;;;11.27;;
14599;SDS011;7386;45.586;12.854;2023-03-25T00:23:44;16.03;;;10.90;;
14599;SDS011;7386;45.586;12.854;2023-03-25T00:26:12;14.07;;;10.77;;
14599;SDS011;7386;45.586;12.854;2023-03-25T00:28:42;16.67;;;11.30;;
14599;SDS011;7386;45.586;12.854;2023-03-25T00:31:11;16.77;;;12.30;;
14599;SDS011;7386;45.586;12.854;2023-03-25T00:33:40;21.93;;;16.80;;
14599;SDS011;7386;45.586;12.854;2023-03-25T00:36:09;18.33;;;15.30;;
14599;SDS011;7386;45.586;12.854;2023-03-25T00:38:40;19.63;;;15.53;;
14599;SDS011;7386;45.586;12.854;2023-03-25T00:41:10;23.40;;;17.07;;
14599;SDS011;7386;45.586;12.854;2023-03-25T00:43:38;20.37;;;16.20;;
14599;SDS011;7386;45.586;12.854;2023-03-25T00:46:09;20.43;;;16.13;;
14599;SDS011;7386;45.586;12.854;2023-03-25T00:48:37;22.30;;;15.37;;
14599;SDS011;7386;45.586;12.854;2023-03-25T00:51:06;20.17;;;15.10;;
14599;SDS011;7386;45.586;12.854;2023-03-25T00:53:36;20.40;;;15.90;;
14599;SDS011;7386;45.586;12.854;2023-03-25T00:56:05;18.50;;;15.77;;
14599;SDS011;7386;45.586;12.854;2023-03-25T00:58:33;18.37;;;15.63;;
14599;SDS011;7386;45.586;12.854;2023-03-25T01:01:06;21.23;;;16.13;;
14599;SDS011;7386;45.586;12.854;2023-03-25T01:03:37;19.73;;;16.40;;
14599;SDS011;7386;45.586;12.854;2023-03-25T01:06:08;18.90;;;15.57;;
14599;SDS011;7386;45.586;12.854;2023-03-25T01:08:36;17.63;;;14.67;;
14599;SDS011;7386;45.586;12.854;2023-03-25T01:11:05;19.33;;;15.10;;
14599;SDS011;7386;45.586;12.854;2023-03-25T01:13:34;18.87;;;14.87;;
14599;SDS011;7386;45.586;12.854;2023-03-25T01:16:05;21.83;;;15.73;;
14599;SDS011;7386;45.586;12.854;2023-03-25T01:18:33;19.60;;;15.53;;
14599;SDS011;7386;45.586;12.854;2023-03-25T01:21:05;21.10;;;16.07;;
14599;SDS011;7386;45.586;12.854;2023-03-25T01:23:34;17.63;;;14.17;;
14599;SDS011;7386;45.586;12.854;2023-03-25T01:26:03;19.80;;;14.57;;
14599;SDS011;7386;45.586;12.854;2023-03-25T01:28:31;20.03;;;14.73;;
14599;SDS011;7386;45.586;12.854;2023-03-25T01:31:00;18.87;;;15.17;;
14599;SDS011;7386;45.586;12.854;2023-03-25T01:33:28;21.60;;;15.23;;
14599;SDS011;7386;45.586;12.854;2023-03-25T01:35:57;17.77;;;14.37;;
14599;SDS011;7386;45.586;12.854;2023-03-25T01:38:28;19.53;;;14.57;;
14599;SDS011;7386;45.586;12.854;2023-03-25T01:40:57;17.50;;;14.37;;
14599;SDS011;7386;45.586;12.854;2023-03-25T01:43:25;16.53;;;13.53;;
14599;SDS011;7386;45.586;12.854;2023-03-25T01:45:54;20.40;;;13.97;;
14599;SDS011;7386;45.586;12.854;2023-03-25T01:48:23;18.83;;;14.23;;
14599;SDS011;7386;45.586;12.854;2023-03-25T01:50:54;17.90;;;14.23;;
14599;SDS011;7386;45.586;12.854;2023-03-25T01:53:25;19.07;;;14.73;;
14599;SDS011;7386;45.586;12.854;2023-03-25T01:55:55;19.60;;;15.17;;
14599;SDS011;7386;45.586;12.854;2023-03-25T01:58:23;19.73;;;14.13;;
14599;SDS011;7386;45.586;12.854;2023-03-25T02:00:54;17.60;;;14.67;;
14599;SDS011;7386;45.586;12.854;2023-03-25T02:03:22;16.57;;;13.93;;
14599;SDS011;7386;45.586;12.854;2023-03-25T02:05:53;17.33;;;14.70;;
14599;SDS011;7386;45.586;12.854;2023-03-25T02:08:23;17.77;;;13.77;;
14599;SDS011;7386;45.586;12.854;2023-03-25T02:10:52;19.67;;;14.37;;
14599;SDS011;7386;45.586;12.854;2023-03-25T02:13:22;19.33;;;14.27;;
14599;SDS011;7386;45.586;12.854;2023-03-25T02:18:38;18.30;;;14.70;;
14599;SDS011;7386;45.586;12.854;2023-03-25T02:21:34;19.43;;;15.00;;
14599;SDS011;7386;45.586;12.854;2023-03-25T02:24:18;17.50;;;14.43;;
14599;SDS011;7386;45.586;12.854;2023-03-25T02:29:49;20.03;;;14.13;;
14599;SDS011;7386;45.586;12.854;2023-03-25T02:32:29;19.93;;;14.50;;
14599;SDS011;7386;45.586;12.854;2023-03-25T02:35:09;19.17;;;14.40;;
14599;SDS011;7386;45.586;12.854;2023-03-25T02:37:53;18.23;;;14.23;;
14599;SDS011;7386;45.586;12.854;2023-03-25T02:40:33;19.00;;;14.03;;
14599;SDS011;7386;45.586;12.854;2023-03-25T02:43:04;17.63;;;14.77;;
14599;SDS011;7386;45.586;12.854;2023-03-25T02:45:39;19.77;;;15.43;;
14599;SDS011;7386;45.586;12.854;2023-03-25T02:48:11;22.77;;;15.60;;
14599;SDS011;7386;45.586;12.854;2023-03-25T02:50:42;22.47;;;16.93;;
14599;SDS011;7386;45.586;12.854;2023-03-25T02:53:16;21.20;;;16.83;;
14599;SDS011;7386;45.586;12.854;2023-03-25T02:55:46;24.43;;;16.47;;
14599;SDS011;7386;45.586;12.854;2023-03-25T02:58:16;21.97;;;16.50;;
14599;SDS011;7386;45.586;12.854;2023-03-25T03:00:47;19.93;;;15.97;;
14599;SDS011;7386;45.586;12.854;2023-03-25T03:03:17;21.40;;;16.77;;
14599;SDS011;7386;45.586;12.854;2023-03-25T03:05:48;20.63;;;16.27;;
14599;SDS011;7386;45.586;12.854;2023-03-25T03:08:22;21.87;;;17.30;;
14599;SDS011;7386;45.586;12.854;2023-03-25T03:10:54;21.80;;;16.80;;
14599;SDS011;7386;45.586;12.854;2023-03-25T03:13:28;21.00;;;16.37;;
14599;SDS011;7386;45.586;12.854;2023-03-25T03:16:02;22.97;;;16.03;;
14599;SDS011;7386;45.586;12.854;2023-03-25T03:18:37;25.30;;;17.30;;
14599;SDS011;7386;45.586;12.854;2023-03-25T03:21:11;21.17;;;16.67;;
14599;SDS011;7386;45.586;12.854;2023-03-25T03:23:43;26.23;;;17.97;;
14599;SDS011;7386;45.586;12.854;2023-03-25T03:26:16;23.13;;;17.87;;
14599;SDS011;7386;45.586;12.854;2023-03-25T03:28:47;23.50;;;18.27;;
14599;SDS011;7386;45.586;12.854;2023-03-25T03:31:19;24.73;;;18.67;;
14599;SDS011;7386;45.586;12.854;2023-03-25T03:34:12;24.77;;;18.37;;
14599;SDS011;7386;45.586;12.854;2023-03-25T03:36:42;27.00;;;18.33;;
14599;SDS011;7386;45.586;12.854;2023-03-25T03:39:16;23.23;;;18.97;;
14599;SDS011;7386;45.586;12.854;2023-03-25T03:41:48;22.57;;;18.17;;
14599;SDS011;7386;45.586;12.854;2023-03-25T03:44:18;22.60;;;17.63;;
14599;SDS011;7386;45.586;12.854;2023-03-25T03:46:49;23.80;;;17.93;;
14599;SDS011;7386;45.586;12.854;2023-03-25T03:49:20;26.40;;;18.70;;
14599;SDS011;7386;45.586;12.854;2023-03-25T03:51:49;25.40;;;18.07;;
14599;SDS011;7386;45.586;12.854;2023-03-25T03:54:21;24.67;;;18.37;;
14599;SDS011;7386;45.586;12.854;2023-03-25T03:56:51;24.67;;;18.57;;
14599;SDS011;7386;45.586;12.854;2023-03-25T03:59:23;29.00;;;19.43;;
14599;SDS011;7386;45.586;12.854;2023-03-25T04:01:54;22.93;;;18.07;;
14599;SDS011;7386;45.586;12.854;2023-03-25T04:04:25;24.60;;;19.10;;
14599;SDS011;7386;45.586;12.854;2023-03-25T04:06:59;25.30;;;18.87;;
14599;SDS011;7386;45.586;12.854;2023-03-25T04:09:31;25.20;;;18.63;;
14599;SDS011;7386;45.586;12.854;2023-03-25T04:12:04;26.83;;;19.73;;
14599;SDS011;7386;45.586;12.854;2023-03-25T04:14:35;26.63;;;20.27;;
14599;SDS011;7386;45.586;12.854;2023-03-25T04:17:04;27.20;;;19.60;;
14599;SDS011;7386;45.586;12.854;2023-03-25T04:19:32;28.83;;;20.27;;
14599;SDS011;7386;45.586;12.854;2023-03-25T04:22:01;29.83;;;20.90;;
14599;SDS011;7386;45.586;12.854;2023-03-25T04:24:31;27.73;;;20.40;;
14599;SDS011;7386;45.586;12.854;2023-03-25T04:27:03;25.07;;;20.67;;
14599;SDS011;7386;45.586;12.854;2023-03-25T04:29:31;26.20;;;20.13;;
14599;SDS011;7386;45.586;12.854;2023-03-25T04:32:00;28.93;;;22.57;;
14599;SDS011;7386;45.586;12.854;2023-03-25T04:34:29;30.50;;;22.03;;
14599;SDS011;7386;45.586;12.854;2023-03-25T04:36:57;29.17;;;22.00;;
14599;SDS011;7386;45.586;12.854;2023-03-25T04:39:27;30.80;;;22.03;;
14599;SDS011;7386;45.586;12.854;2023-03-25T04:41:59;27.17;;;21.03;;
14599;SDS011;7386;45.586;12.854;2023-03-25T04:44:28;27.77;;;21.50;;
14599;SDS011;7386;45.586;12.854;2023-03-25T04:46:59;31.03;;;22.67;;
14599;SDS011;7386;45.586;12.854;2023-03-25T04:49:28;30.87;;;22.83;;
14599;SDS011;7386;45.586;12.854;2023-03-25T04:51:57;29.30;;;22.43;;
14599;SDS011;7386;45.586;12.854;2023-03-25T04:54:27;29.93;;;23.13;;
14599;SDS011;7386;45.586;12.854;2023-03-25T04:56:55;29.17;;;23.17;;
14599;SDS011;7386;45.586;12.854;2023-03-25T04:59:25;32.17;;;23.43;;
14599;SDS011;7386;45.586;12.854;2023-03-25T05:01:54;31.70;;;23.87;;
14599;SDS011;7386;45.586;12.854;2023-03-25T05:04:23;31.67;;;23.87;;
14599;SDS011;7386;45.586;12.854;2023-03-25T05:06:51;30.93;;;23.20;;
14599;SDS011;7386;45.586;12.854;2023-03-25T05:09:22;34.57;;;24.83;;
14599;SDS011;7386;45.586;12.854;2023-03-25T05:11:51;33.60;;;25.67;;
14599;SDS011;7386;45.586;12.854;2023-03-25T05:14:21;36.67;;;26.47;;
14599;SDS011;7386;45.586;12.854;2023-03-25T05:16:51;37.70;;;27.40;;
14599;SDS011;7386;45.586;12.854;2023-03-25T05:19:21;34.70;;;26.27;;
14599;SDS011;7386;45.586;12.854;2023-03-25T05:21:49;35.40;;;26.90;;
14599;SDS011;7386;45.586;12.854;2023-03-25T05:24:17;38.00;;;28.03;;
14599;SDS011;7386;45.586;12.854;2023-03-25T05:26:46;40.20;;;28.10;;
14599;SDS011;7386;45.586;12.854;2023-03-25T05:29:15;36.60;;;27.37;;
14599;SDS011;7386;45.586;12.854;2023-03-25T05:31:44;38.80;;;28.47;;
14599;SDS011;7386;45.586;12.854;2023-03-25T05:34:15;37.30;;;27.53;;
14599;SDS011;7386;45.586;12.854;2023-03-25T05:36:43;39.83;;;28.23;;
14599;SDS011;7386;45.586;12.854;2023-03-25T05:39:13;37.57;;;27.70;;
14599;SDS011;7386;45.586;12.854;2023-03-25T05:41:42;37.10;;;26.80;;
14599;SDS011;7386;45.586;12.854;2023-03-25T05:44:12;36.50;;;27.07;;
14599;SDS011;7386;45.586;12.854;2023-03-25T05:46:44;38.27;;;28.63;;
14599;SDS011;7386;45.586;12.854;2023-03-25T05:49:12;40.13;;;29.37;;
14599;SDS011;7386;45.586;12.854;2023-03-25T05:51:42;36.53;;;27.97;;
14599;SDS011;7386;45.586;12.854;2023-03-25T05:54:11;39.30;;;27.53;;
14599;SDS011;7386;45.586;12.854;2023-03-25T05:56:39;36.17;;;26.87;;
14599;SDS011;7386;45.586;12.854;2023-03-25T05:59:08;33.00;;;25.20;;
14599;SDS011;7386;45.586;12.854;2023-03-25T06:01:36;31.87;;;25.33;;
14599;SDS011;7386;45.586;12.854;2023-03-25T06:04:07;33.53;;;24.90;;
14599;SDS011;7386;45.586;12.854;2023-03-25T06:06:38;31.20;;;23.83;;
14599;SDS011;7386;45.586;12.854;2023-03-25T06:09:08;28.70;;;22.23;;
14599;SDS011;7386;45.586;12.854;2023-03-25T06:11:37;27.67;;;20.60;;
14599;SDS011;7386;45.586;12.854;2023-03-25T06:14:05;28.97;;;19.97;;
14599;SDS011;7386;45.586;12.854;2023-03-25T06:16:34;26.57;;;18.73;;
14599;SDS011;7386;45.586;12.854;2023-03-25T06:19:02;21.83;;;17.17;;
14599;SDS011;7386;45.586;12.854;2023-03-25T06:21:31;19.57;;;15.93;;
14599;SDS011;7386;45.586;12.854;2023-03-25T06:24:00;18.17;;;14.90;;
14599;SDS011;7386;45.586;12.854;2023-03-25T06:26:30;19.73;;;15.40;;
14599;SDS011;7386;45.586;12.854;2023-03-25T06:28:58;20.83;;;14.93;;
14599;SDS011;7386;45.586;12.854;2023-03-25T06:31:27;16.43;;;13.43;;
14599;SDS011;7386;45.586;12.854;2023-03-25T06:33:59;15.83;;;12.50;;
14599;SDS011;7386;45.586;12.854;2023-03-25T06:36:28;15.07;;;12.07;;
14599;SDS011;7386;45.586;12.854;2023-03-25T06:38:57;18.63;;;12.90;;
14599;SDS011;7386;45.586;12.854;2023-03-25T06:41:25;16.07;;;12.70;;
14599;SDS011;7386;45.586;12.854;2023-03-25T06:43:55;16.27;;;12.50;;
14599;SDS011;7386;45.586;12.854;2023-03-25T06:46:23;17.77;;;13.83;;
14599;SDS011;7386;45.586;12.854;2023-03-25T06:48:52;19.23;;;13.57;;
14599;SDS011;7386;45.586;12.854;2023-03-25T06:51:20;16.90;;;13.23;;
14599;SDS011;7386;45.586;12.854;2023-03-25T06:53:49;16.27;;;13.03;;
14599;SDS011;7386;45.586;12.854;2023-03-25T06:56:17;16.67;;;13.23;;
14599;SDS011;7386;45.586;12.854;2023-03-25T06:58:46;17.03;;;13.37;;
14599;SDS011;7386;45.586;12.854;2023-03-25T07:01:16;17.13;;;12.67;;
14599;SDS011;7386;45.586;12.854;2023-03-25T07:03:44;16.07;;;12.67;;
14599;SDS011;7386;45.586;12.854;2023-03-25T07:06:13;18.80;;;14.83;;
14599;SDS011;7386;45.586;12.854;2023-03-25T07:08:43;20.27;;;13.37;;
14599;SDS011;7386;45.586;12.854;2023-03-25T07:11:11;17.47;;;13.27;;
14599;SDS011;7386;45.586;12.854;2023-03-25T07:13:40;18.13;;;12.93;;
14599;SDS011;7386;45.586;12.854;2023-03-25T07:16:09;15.87;;;12.77;;
14599;SDS011;7386;45.586;12.854;2023-03-25T07:18:41;19.07;;;12.73;;
14599;SDS011;7386;45.586;12.854;2023-03-25T07:21:09;18.63;;;13.23;;
14599;SDS011;7386;45.586;12.854;2023-03-25T07:23:38;18.07;;;13.20;;
14599;SDS011;7386;45.586;12.854;2023-03-25T07:26:06;15.57;;;12.77;;
14599;SDS011;7386;45.586;12.854;2023-03-25T07:28:35;14.50;;;12.20;;
14599;SDS011;7386;45.586;12.854;2023-03-25T07:31:04;15.17;;;12.57;;
14599;SDS011;7386;45.586;12.854;2023-03-25T07:33:33;15.87;;;12.20;;
14599;SDS011;7386;45.586;12.854;2023-03-25T07:36:04;17.10;;;12.53;;
14599;SDS011;7386;45.586;12.854;2023-03-25T07:38:33;21.30;;;13.83;;
14599;SDS011;7386;45.586;12.854;2023-03-25T07:41:03;19.13;;;13.67;;
14599;SDS011;7386;45.586;12.854;2023-03-25T07:43:32;19.70;;;14.00;;
14599;SDS011;7386;45.586;12.854;2023-03-25T07:46:01;16.97;;;12.60;;
14599;SDS011;7386;45.586;12.854;2023-03-25T07:48:29;18.77;;;12.80;;
14599;SDS011;7386;45.586;12.854;2023-03-25T07:50:58;15.50;;;11.63;;
14599;SDS011;7386;45.586;12.854;2023-03-25T07:53:28;14.43;;;11.57;;
14599;SDS011;7386;45.586;12.854;2023-03-25T07:55:57;13.13;;;10.90;;
14599;SDS011;7386;45.586;12.854;2023-03-25T07:58:25;14.17;;;11.83;;
14599;SDS011;7386;45.586;12.854;2023-03-25T08:00:55;16.10;;;11.67;;
14599;SDS011;7386;45.586;12.854;2023-03-25T08:03:23;18.37;;;12.37;;
14599;SDS011;7386;45.586;12.854;2023-03-25T08:05:53;17.37;;;11.80;;
14599;SDS011;7386;45.586;12.854;2023-03-25T08:08:21;17.77;;;12.20;;
14599;SDS011;7386;45.586;12.854;2023-03-25T08:10:51;15.77;;;11.90;;
14599;SDS011;7386;45.586;12.854;2023-03-25T08:13:20;16.93;;;11.13;;
14599;SDS011;7386;45.586;12.854;2023-03-25T08:15:48;16.67;;;11.93;;
14599;SDS011;7386;45.586;12.854;2023-03-25T08:18:17;16.00;;;11.90;;
14599;SDS011;7386;45.586;12.854;2023-03-25T08:20:47;16.77;;;12.57;;
14599;SDS011;7386;45.586;12.854;2023-03-25T08:23:16;21.25;;;15.50;;
14599;SDS011;7386;45.586;12.854;2023-03-25T08:25:45;15.97;;;12.53;;
14599;SDS011;7386;45.586;12.854;2023-03-25T08:28:18;19.83;;;11.80;;
14599;SDS011;7386;45.586;12.854;2023-03-25T08:30:49;18.27;;;13.00;;
14599;SDS011;7386;45.586;12.854;2023-03-25T08:33:20;15.27;;;11.50;;
14599;SDS011;7386;45.586;12.854;2023-03-25T08:35:55;17.10;;;11.57;;
14599;SDS011;7386;45.586;12.854;2023-03-25T08:38:24;17.53;;;12.73;;
14599;SDS011;7386;45.586;12.854;2023-03-25T08:41:00;18.40;;;14.10;;
14599;SDS011;7386;45.586;12.854;2023-03-25T08:43:30;19.20;;;12.70;;
14599;SDS011;7386;45.586;12.854;2023-03-25T08:45:58;20.00;;;13.93;;
14599;SDS011;7386;45.586;12.854;2023-03-25T08:48:27;23.77;;;15.10;;
14599;SDS011;7386;45.586;12.854;2023-03-25T08:50:55;22.63;;;13.97;;
14599;SDS011;7386;45.586;12.854;2023-03-25T08:53:24;23.50;;;17.47;;
14599;SDS011;7386;45.586;12.854;2023-03-25T08:55:53;27.07;;;18.10;;
14599;SDS011;7386;45.586;12.854;2023-03-25T08:58:22;20.53;;;14.80;;
14599;SDS011;7386;45.586;12.854;2023-03-25T09:00:54;34.73;;;22.93;;
14599;SDS011;7386;45.586;12.854;2023-03-25T09:03:23;32.20;;;21.53;;
14599;SDS011;7386;45.586;12.854;2023-03-25T09:05:52;22.97;;;17.73;;
14599;SDS011;7386;45.586;12.854;2023-03-25T09:08:21;40.67;;;27.03;;
14599;SDS011;7386;45.586;12.854;2023-03-25T09:10:49;31.33;;;22.17;;
14599;SDS011;7386;45.586;12.854;2023-03-25T09:13:18;40.77;;;27.17;;
14599;SDS011;7386;45.586;12.854;2023-03-25T09:15:46;55.30;;;35.07;;
14599;SDS011;7386;45.586;12.854;2023-03-25T09:18:16;36.10;;;24.10;;
14599;SDS011;7386;45.586;12.854;2023-03-25T09:20:45;49.70;;;34.77;;
14599;SDS011;7386;45.586;12.854;2023-03-25T09:23:14;49.10;;;31.23;;
14599;SDS011;7386;45.586;12.854;2023-03-25T09:25:43;33.77;;;22.33;;
14599;SDS011;7386;45.586;12.854;2023-03-25T09:28:12;60.53;;;40.33;;
14599;SDS011;7386;45.586;12.854;2023-03-25T09:30:40;48.30;;;32.17;;
14599;SDS011;7386;45.586;12.854;2023-03-25T09:33:09;40.03;;;27.10;;
14599;SDS011;7386;45.586;12.854;2023-03-25T09:35:39;73.30;;;46.17;;
14599;SDS011;7386;45.586;12.854;2023-03-25T09:38:08;48.20;;;30.50;;
14599;SDS011;7386;45.586;12.854;2023-03-25T09:40:39;60.70;;;40.97;;
14599;SDS011;7386;45.586;12.854;2023-03-25T09:43:14;64.83;;;42.13;;
14599;SDS011;7386;45.586;12.854;2023-03-25T09:45:48;41.97;;;27.57;;
14599;SDS011;7386;45.586;12.854;2023-03-25T09:48:23;49.33;;;31.23;;
14599;SDS011;7386;45.586;12.854;2023-03-25T09:50:54;40.93;;;27.77;;
14599;SDS011;7386;45.586;12.854;2023-03-25T09:53:26;32.60;;;21.93;;
14599;SDS011;7386;45.586;12.854;2023-03-25T09:55:56;49.53;;;33.20;;
14599;SDS011;7386;45.586;12.854;2023-03-25T09:58:26;47.23;;;30.37;;
14599;SDS011;7386;45.586;12.854;2023-03-25T10:00:56;35.17;;;23.03;;
14599;SDS011;7386;45.586;12.854;2023-03-25T10:03:29;70.27;;;45.93;;
14599;SDS011;7386;45.586;12.854;2023-03-25T10:08:53;49.40;;;33.60;;
14599;SDS011;7386;45.586;12.854;2023-03-25T10:11:25;77.63;;;50.27;;
14599;SDS011;7386;45.586;12.854;2023-03-25T10:13:57;60.03;;;39.92;;
14599;SDS011;7386;45.586;12.854;2023-03-25T10:16:29;41.22;;;28.88;;
14599;SDS011;7386;45.586;12.854;2023-03-25T10:19:04;72.30;;;46.70;;
14599;SDS011;7386;45.586;12.854;2023-03-25T10:21:35;44.83;;;31.20;;
14599;SDS011;7386;45.586;12.854;2023-03-25T10:24:10;39.05;;;27.08;;
14599;SDS011;7386;45.586;12.854;2023-03-25T10:26:41;54.13;;;36.53;;
14599;SDS011;7386;45.586;12.854;2023-03-25T10:29:11;44.45;;;29.80;;
14599;SDS011;7386;45.586;12.854;2023-03-25T10:31:42;36.30;;;26.83;;
14599;SDS011;7386;45.586;12.854;2023-03-25T10:34:15;65.95;;;44.20;;
14599;SDS011;7386;45.586;12.854;2023-03-25T10:36:45;58.88;;;37.47;;
14599;SDS011;7386;45.586;12.854;2023-03-25T10:39:17;51.13;;;35.03;;
14599;SDS011;7386;45.586;12.854;2023-03-25T10:41:46;73.83;;;47.83;;
14599;SDS011;7386;45.586;12.854;2023-03-25T10:44:19;78.63;;;48.70;;
14599;SDS011;7386;45.586;12.854;2023-03-25T10:46:48;81.40;;;54.33;;
14599;SDS011;7386;45.586;12.854;2023-03-25T10:49:19;69.43;;;45.95;;
14599;SDS011;7386;45.586;12.854;2023-03-25T10:51:49;41.13;;;31.08;;
14599;SDS011;7386;45.586;12.854;2023-03-25T10:54:21;69.32;;;47.10;;
14599;SDS011;7386;45.586;12.854;2023-03-25T10:56:53;104.85;;;67.45;;
14599;SDS011;7386;45.586;12.854;2023-03-25T10:59:24;98.85;;;61.55;;
14599;SDS011;7386;45.586;12.854;2023-03-25T11:01:54;58.67;;;40.60;;
14599;SDS011;7386;45.586;12.854;2023-03-25T11:04:25;89.82;;;60.90;;
14599;SDS011;7386;45.586;12.854;2023-03-25T11:06:56;123.22;;;79.93;;
14599;SDS011;7386;45.586;12.854;2023-03-25T11:09:26;79.07;;;52.13;;
14599;SDS011;7386;45.586;12.854;2023-03-25T11:11:58;125.17;;;88.93;;
14599;SDS011;7386;45.586;12.854;2023-03-25T11:14:28;84.97;;;55.00;;
14599;SDS011;7386;45.586;12.854;2023-03-25T11:16:58;46.97;;;34.10;;
14599;SDS011;7386;45.586;12.854;2023-03-25T11:19:29;82.50;;;53.78;;
14599;SDS011;7386;45.586;12.854;2023-03-25T11:21:59;79.43;;;51.70;;
14599;SDS011;7386;45.586;12.854;2023-03-25T11:24:30;60.22;;;42.55;;
14599;SDS011;7386;45.586;12.854;2023-03-25T11:26:59;106.63;;;69.93;;
14599;SDS011;7386;45.586;12.854;2023-03-25T11:29:29;78.93;;;51.67;;
14599;SDS011;7386;45.586;12.854;2023-03-25T11:32:04;65.22;;;43.35;;
14599;SDS011;7386;45.586;12.854;2023-03-25T11:34:34;61.35;;;40.92;;
14599;SDS011;7386;45.586;12.854;2023-03-25T11:37:14;50.28;;;35.60;;
14599;SDS011;7386;45.586;12.854;2023-03-25T11:39:47;92.20;;;61.92;;
14599;SDS011;7386;45.586;12.854;2023-03-25T11:42:20;55.28;;;35.95;;
14599;SDS011;7386;45.586;12.854;2023-03-25T11:44:52;51.95;;;36.45;;
14599;SDS011;7386;45.586;12.854;2023-03-25T11:47:21;56.05;;;36.53;;
14599;SDS011;7386;45.586;12.854;2023-03-25T11:49:52;42.50;;;30.90;;
14599;SDS011;7386;45.586;12.854;2023-03-25T11:52:22;65.53;;;42.95;;
14599;SDS011;7386;45.586;12.854;2023-03-25T11:54:53;43.78;;;29.48;;
14599;SDS011;7386;45.586;12.854;2023-03-25T11:57:23;69.63;;;47.35;;
14599;SDS011;7386;45.586;12.854;2023-03-25T11:59:59;74.25;;;43.63;;
14599;SDS011;7386;45.586;12.854;2023-03-25T12:02:35;40.40;;;29.77;;
14599;SDS011;7386;45.586;12.854;2023-03-25T12:05:10;65.72;;;44.22;;
14599;SDS011;7386;45.586;12.854;2023-03-25T12:07:39;65.22;;;43.03;;
14599;SDS011;7386;45.586;12.854;2023-03-25T12:10:15;55.72;;;38.47;;
14599;SDS011;7386;45.586;12.854;2023-03-25T12:12:47;65.28;;;44.35;;
14599;SDS011;7386;45.586;12.854;2023-03-25T12:15:18;47.38;;;30.80;;
14599;SDS011;7386;45.586;12.854;2023-03-25T12:17:52;49.22;;;34.55;;
14599;SDS011;7386;45.586;12.854;2023-03-25T12:20:24;57.70;;;33.33;;
14599;SDS011;7386;45.586;12.854;2023-03-25T12:22:59;49.15;;;34.78;;
14599;SDS011;7386;45.586;12.854;2023-03-25T12:25:42;64.60;;;41.85;;
14599;SDS011;7386;45.586;12.854;2023-03-25T12:28:23;43.72;;;30.65;;
14599;SDS011;7386;45.586;12.854;2023-03-25T12:30:57;73.78;;;46.60;;
14599;SDS011;7386;45.586;12.854;2023-03-25T12:33:32;47.72;;;34.60;;
14599;SDS011;7386;45.586;12.854;2023-03-25T12:36:16;53.22;;;37.72;;
14599;SDS011;7386;45.586;12.854;2023-03-25T12:38:48;62.58;;;41.35;;
14599;SDS011;7386;45.586;12.854;2023-03-25T12:41:21;40.33;;;26.80;;
14599;SDS011;7386;45.586;12.854;2023-03-25T12:43:58;55.13;;;39.15;;
14599;SDS011;7386;45.586;12.854;2023-03-25T12:46:41;98.88;;;65.20;;
14599;SDS011;7386;45.586;12.854;2023-03-25T12:49:14;116.97;;;74.15;;
14599;SDS011;7386;45.586;12.854;2023-03-25T12:51:46;117.40;;;74.45;;
14599;SDS011;7386;45.586;12.854;2023-03-25T12:54:22;129.57;;;84.20;;
14599;SDS011;7386;45.586;12.854;2023-03-25T12:56:56;119.72;;;73.88;;
14599;SDS011;7386;45.586;12.854;2023-03-25T12:59:30;104.90;;;67.60;;
14599;SDS011;7386;45.586;12.854;2023-03-25T13:02:04;112.22;;;75.55;;
14599;SDS011;7386;45.586;12.854;2023-03-25T13:04:39;116.65;;;79.63;;
14599;SDS011;7386;45.586;12.854;2023-03-25T13:07:11;117.05;;;75.93;;
14599;SDS011;7386;45.586;12.854;2023-03-25T13:09:44;119.13;;;77.93;;
14599;SDS011;7386;45.586;12.854;2023-03-25T13:12:16;123.25;;;80.78;;
14599;SDS011;7386;45.586;12.854;2023-03-25T13:14:50;131.48;;;87.63;;
14599;SDS011;7386;45.586;12.854;2023-03-25T13:17:24;138.80;;;92.45;;
14599;SDS011;7386;45.586;12.854;2023-03-25T13:19:55;141.02;;;92.15;;
14599;SDS011;7386;45.586;12.854;2023-03-25T13:22:26;93.30;;;62.08;;
14599;SDS011;7386;45.586;12.854;2023-03-25T13:24:56;67.22;;;42.88;;
14599;SDS011;7386;45.586;12.854;2023-03-25T13:27:29;92.15;;;61.38;;
14599;SDS011;7386;45.586;12.854;2023-03-25T13:29:59;127.45;;;83.10;;
14599;SDS011;7386;45.586;12.854;2023-03-25T13:32:31;135.85;;;90.68;;
14599;SDS011;7386;45.586;12.854;2023-03-25T13:35:02;143.18;;;92.97;;
14599;SDS011;7386;45.586;12.854;2023-03-25T13:37:34;141.20;;;91.90;;
14599;SDS011;7386;45.586;12.854;2023-03-25T13:40:06;138.48;;;89.78;;
14599;SDS011;7386;45.586;12.854;2023-03-25T13:42:40;134.65;;;91.70;;
14599;SDS011;7386;45.586;12.854;2023-03-25T13:45:13;142.93;;;92.13;;
14599;SDS011;7386;45.586;12.854;2023-03-25T13:47:44;144.27;;;94.82;;
14599;SDS011;7386;45.586;12.854;2023-03-25T13:50:16;153.02;;;102.90;;
14599;SDS011;7386;45.586;12.854;2023-03-25T13:52:46;154.00;;;100.45;;
14599;SDS011;7386;45.586;12.854;2023-03-25T13:55:16;159.77;;;102.93;;
14599;SDS011;7386;45.586;12.854;2023-03-25T13:57:56;140.80;;;93.57;;
14599;SDS011;7386;45.586;12.854;2023-03-25T14:00:47;168.18;;;107.10;;
14599;SDS011;7386;45.586;12.854;2023-03-25T14:03:27;167.98;;;109.45;;
14599;SDS011;7386;45.586;12.854;2023-03-25T14:06:06;163.55;;;105.10;;
14599;SDS011;7386;45.586;12.854;2023-03-25T14:08:46;90.65;;;58.10;;
14599;SDS011;7386;45.586;12.854;2023-03-25T14:11:20;114.97;;;77.13;;
14599;SDS011;7386;45.586;12.854;2023-03-25T14:13:53;115.13;;;73.75;;
14599;SDS011;7386;45.586;12.854;2023-03-25T14:16:27;81.68;;;52.58;;
14599;SDS011;7386;45.586;12.854;2023-03-25T14:18:59;80.15;;;49.63;;
14599;SDS011;7386;45.586;12.854;2023-03-25T14:21:30;60.58;;;38.15;;
14599;SDS011;7386;45.586;12.854;2023-03-25T14:24:00;49.90;;;30.00;;
14599;SDS011;7386;45.586;12.854;2023-03-25T14:26:30;53.42;;;33.88;;
14599;SDS011;7386;45.586;12.854;2023-03-25T14:29:04;87.68;;;56.28;;
14599;SDS011;7386;45.586;12.854;2023-03-25T14:31:34;106.22;;;59.60;;
14599;SDS011;7386;45.586;12.854;2023-03-25T14:34:12;105.65;;;53.38;;
14599;SDS011;7386;45.586;12.854;2023-03-25T14:37:09;96.68;;;45.28;;
14599;SDS011;7386;45.586;12.854;2023-03-25T14:39:38;110.88;;;54.63;;
14599;SDS011;7386;45.586;12.854;2023-03-25T14:42:22;106.65;;;67.05;;
14599;SDS011;7386;45.586;12.854;2023-03-25T14:44:52;134.73;;;81.05;;
14599;SDS011;7386;45.586;12.854;2023-03-25T14:47:25;125.20;;;77.13;;
14599;SDS011;7386;45.586;12.854;2023-03-25T14:49:55;93.53;;;53.22;;
14599;SDS011;7386;45.586;12.854;2023-03-25T14:52:31;50.25;;;28.92;;